Time;durP1;ratioP1;P1;durP2;ratioP2;P2;SDS_P1;SDS_P2;PMS_P1;PMS_P2;Temp;Humidity;BMP_temperature;BMP_pressure;BME280_temperature;BME280_humidity;BME280_pressure;Samples;Min_cycle;Max_cycle;Signal;HPM_P1;HPM_P2
2021/09/04 00:00:10;;;;;;;1.77;0.50;;;6.40;99.90;;;;;;5073287;28;20400;-72
2021/09/04 00:02:36;;;;;;;0.57;0.50;;;6.40;99.90;;;;;;5073027;28;20091;-72
2021/09/04 00:05:03;;;;;;;0.98;0.55;;;6.30;99.90;;;;;;5073257;28;20504;-72
2021/09/04 00:07:30;;;;;;;0.50;0.50;;;6.30;99.90;;;;;;5072563;28;20089;-72
2021/09/04 00:09:56;;;;;;;0.70;0.50;;;6.20;99.90;;;;;;5072848;28;20526;-72
2021/09/04 00:12:22;;;;;;;1.13;0.68;;;6.20;99.90;;;;;;5072616;28;20032;-72
2021/09/04 00:14:48;;;;;;;2.15;0.60;;;6.20;99.90;;;;;;5072642;28;20032;-72
2021/09/04 00:17:14;;;;;;;3.25;0.40;;;6.20;99.90;;;;;;5072909;28;20424;-72
2021/09/04 00:19:40;;;;;;;0.50;0.47;;;6.20;99.90;;;;;;5072462;28;20445;-72
2021/09/04 00:22:05;;;;;;;1.20;0.65;;;6.20;99.90;;;;;;5072783;28;20017;-72
2021/09/04 00:24:31;;;;;;;1.02;0.60;;;6.20;99.90;;;;;;5072421;28;20119;-72
2021/09/04 00:26:57;;;;;;;2.17;0.60;;;6.10;99.90;;;;;;5072399;28;20178;-72
2021/09/04 00:29:23;;;;;;;0.90;0.43;;;6.20;99.90;;;;;;5072663;28;20024;-72
2021/09/04 00:31:48;;;;;;;3.05;0.40;;;6.20;99.90;;;;;;5072595;28;20074;-72
2021/09/04 00:34:15;;;;;;;1.38;0.40;;;6.10;99.90;;;;;;5072514;28;20486;-72
2021/09/04 00:36:41;;;;;;;0.93;0.55;;;6.10;99.90;;;;;;5071169;28;20020;-72
2021/09/04 00:39:07;;;;;;;0.82;0.43;;;6.10;99.90;;;;;;5072330;28;20033;-72
2021/09/04 00:41:34;;;;;;;1.77;0.60;;;6.10;99.90;;;;;;5072371;28;20024;-72
2021/09/04 00:44:02;;;;;;;2.72;0.55;;;6.10;99.90;;;;;;5072251;28;20544;-72
2021/09/04 00:46:28;;;;;;;2.20;0.60;;;6.10;99.90;;;;;;5072220;28;20032;-72
2021/09/04 00:48:53;;;;;;;0.85;0.60;;;6.10;99.90;;;;;;5072429;28;20487;-72
2021/09/04 00:51:19;;;;;;;2.45;0.70;;;6.10;99.90;;;;;;5072110;28;20494;-72
2021/09/04 00:53:45;;;;;;;0.82;0.50;;;6.10;99.90;;;;;;5071966;28;20028;-72
2021/09/04 00:56:15;;;;;;;0.50;0.50;;;6.10;99.90;;;;;;5072212;28;20108;-72
2021/09/04 00:58:41;;;;;;;0.70;0.50;;;6.00;99.90;;;;;;5071958;28;20028;-72
2021/09/04 01:01:07;;;;;;;2.35;0.60;;;6.00;99.90;;;;;;5072002;28;20040;-72
2021/09/04 01:03:33;;;;;;;0.88;0.50;;;6.00;99.90;;;;;;5071814;28;20029;-72
2021/09/04 01:06:00;;;;;;;0.47;0.40;;;6.00;99.90;;;;;;5071835;28;20031;-72
2021/09/04 01:08:26;;;;;;;1.05;0.60;;;6.00;99.90;;;;;;5072096;28;20020;-72
2021/09/04 01:10:52;;;;;;;1.58;0.50;;;5.90;99.90;;;;;;5071912;28;20093;-72
2021/09/04 01:13:19;;;;;;;0.95;0.55;;;5.90;99.90;;;;;;5072036;28;20028;-72
2021/09/04 01:15:45;;;;;;;2.28;0.70;;;5.90;99.90;;;;;;5071713;28;20028;-72
2021/09/04 01:47:15;;;;;;;0.75;0.60;;;5.50;99.90;;;;;;5072198;28;20029;-72
2021/09/04 01:49:41;;;;;;;1.90;0.60;;;5.50;99.90;;;;;;5075540;28;20502;-72
2021/09/04 01:52:06;;;;;;;2.65;0.68;;;5.50;99.90;;;;;;5075183;28;20028;-72
2021/09/04 01:54:32;;;;;;;0.57;0.50;;;5.50;99.90;;;;;;5075194;28;20048;-72
2021/09/04 01:57:01;;;;;;;1.65;0.73;;;5.50;99.90;;;;;;5075250;28;20078;-72
2021/09/04 01:59:27;;;;;;;1.50;0.40;;;5.50;99.90;;;;;;5075285;28;20027;-72
2021/09/04 02:01:53;;;;;;;3.22;0.70;;;5.50;99.90;;;;;;5075196;28;20094;-72
2021/09/04 02:04:18;;;;;;;2.53;0.55;;;5.40;99.90;;;;;;5075052;28;20029;-72
2021/09/04 02:06:44;;;;;;;0.40;0.40;;;5.40;99.90;;;;;;5075117;28;20024;-72
2021/09/04 02:09:10;;;;;;;0.52;0.52;;;5.40;99.90;;;;;;5075316;28;20479;-72
2021/09/04 02:11:35;;;;;;;0.98;0.50;;;5.40;99.90;;;;;;5074991;28;20105;-72
2021/09/04 02:14:01;;;;;;;2.75;0.50;;;5.40;99.90;;;;;;5075302;28;20043;-72
2021/09/04 02:16:27;;;;;;;0.85;0.57;;;5.40;99.90;;;;;;5075141;28;20072;-72
2021/09/04 02:18:53;;;;;;;1.00;0.63;;;5.50;99.90;;;;;;5075366;28;20033;-72
2021/09/04 02:21:18;;;;;;;0.50;0.50;;;5.50;99.90;;;;;;5074800;28;20028;-72
2021/09/04 02:23:46;;;;;;;1.58;0.50;;;5.60;99.90;;;;;;5074832;28;20025;-72
2021/09/04 02:26:12;;;;;;;4.03;0.50;;;5.60;99.90;;;;;;5074667;28;20028;-72
2021/09/04 02:28:37;;;;;;;1.10;0.50;;;5.70;99.90;;;;;;5074685;28;20032;-72
2021/09/04 02:31:03;;;;;;;0.75;0.50;;;5.70;99.90;;;;;;5075096;28;20162;-72
2021/09/04 02:33:29;;;;;;;0.40;0.40;;;5.70;99.90;;;;;;5074441;28;20476;-72
2021/09/04 02:35:54;;;;;;;2.92;0.52;;;5.70;99.90;;;;;;5074842;28;20047;-72
2021/09/04 02:38:20;;;;;;;2.30;0.60;;;5.70;99.90;;;;;;5074707;28;20473;-72
2021/09/04 02:40:46;;;;;;;0.75;0.55;;;5.70;99.90;;;;;;5074661;28;20033;-72
2021/09/04 02:43:11;;;;;;;0.65;0.50;;;5.80;99.90;;;;;;5074368;28;20066;-72
2021/09/04 02:45:37;;;;;;;1.40;0.60;;;5.80;99.90;;;;;;5074751;28;20017;-72
2021/09/04 02:48:03;;;;;;;0.55;0.47;;;5.80;99.90;;;;;;5074448;28;20575;-72
2021/09/04 02:50:30;;;;;;;0.40;0.40;;;5.80;99.90;;;;;;5074572;28;20111;-72
2021/09/04 02:52:55;;;;;;;0.50;0.50;;;5.90;99.90;;;;;;5074353;28;20031;-72
2021/09/04 02:55:21;;;;;;;0.68;0.60;;;5.90;99.90;;;;;;5074102;28;20053;-72
2021/09/04 02:57:47;;;;;;;0.38;0.38;;;5.90;99.90;;;;;;5074422;28;20056;-72
2021/09/04 03:00:13;;;;;;;3.72;0.50;;;6.00;99.90;;;;;;5073085;28;20537;-72
2021/09/04 03:02:39;;;;;;;0.50;0.40;;;6.00;99.90;;;;;;5074102;28;20094;-72
2021/09/04 03:05:05;;;;;;;0.50;0.50;;;6.00;99.90;;;;;;5074463;28;20468;-72
2021/09/04 03:07:31;;;;;;;0.63;0.47;;;6.00;99.90;;;;;;5073872;28;20043;-72
2021/09/04 03:09:56;;;;;;;0.95;0.50;;;6.00;99.90;;;;;;5074011;28;20028;-72
2021/09/04 03:12:22;;;;;;;0.60;0.60;;;6.00;99.90;;;;;;5074360;28;20028;-72
2021/09/04 03:14:48;;;;;;;1.20;0.50;;;6.10;99.90;;;;;;5073874;28;20033;-72
2021/09/04 03:17:13;;;;;;;0.50;0.50;;;6.10;99.90;;;;;;5074225;28;20033;-72
2021/09/04 03:19:39;;;;;;;1.25;0.45;;;6.10;99.90;;;;;;5074169;28;20021;-72
2021/09/04 03:22:05;;;;;;;0.57;0.50;;;6.10;99.90;;;;;;5073761;28;20425;-72
2021/09/04 03:24:30;;;;;;;0.40;0.40;;;6.10;99.90;;;;;;5073936;28;20038;-72
2021/09/04 03:26:57;;;;;;;0.63;0.50;;;6.10;99.90;;;;;;5073977;28;20028;-72
2021/09/04 03:29:22;;;;;;;2.10;0.47;;;6.10;99.90;;;;;;5073784;28;20029;-72
2021/09/04 03:31:48;;;;;;;0.52;0.47;;;6.10;99.90;;;;;;5073382;28;20496;-72
2021/09/04 03:34:14;;;;;;;1.05;0.60;;;6.10;99.90;;;;;;5073694;28;20032;-72
2021/09/04 03:36:40;;;;;;;0.30;0.30;;;6.10;99.90;;;;;;5073535;28;20484;-72
2021/09/04 03:39:05;;;;;;;2.92;0.60;;;6.20;99.90;;;;;;5073821;28;20101;-72
2021/09/04 03:41:31;;;;;;;1.55;0.40;;;6.10;99.90;;;;;;5073301;28;20480;-72
2021/09/04 03:43:58;;;;;;;0.82;0.52;;;6.20;99.90;;;;;;5073543;28;20024;-72
2021/09/04 03:46:23;;;;;;;1.15;0.50;;;6.20;99.90;;;;;;5073467;28;20106;-72
2021/09/04 03:48:49;;;;;;;0.57;0.50;;;6.20;99.90;;;;;;5073261;28;20438;-72
2021/09/04 03:51:15;;;;;;;1.17;0.60;;;6.20;99.90;;;;;;5073397;28;20028;-72
2021/09/04 03:53:40;;;;;;;1.60;0.50;;;6.10;99.90;;;;;;5072972;28;20129;-72
2021/09/04 03:56:06;;;;;;;2.20;0.50;;;6.10;99.90;;;;;;5073633;28;20082;-73
2021/09/04 03:58:32;;;;;;;0.88;0.60;;;6.10;99.90;;;;;;5073183;28;20024;-72
2021/09/04 04:00:57;;;;;;;1.45;0.50;;;6.10;99.90;;;;;;5073085;28;20392;-72
2021/09/04 04:03:23;;;;;;;1.25;0.50;;;6.10;99.90;;;;;;5072992;28;20100;-72
2021/09/04 04:05:49;;;;;;;1.02;0.40;;;6.20;99.90;;;;;;5073250;28;20538;-72
2021/09/04 04:08:15;;;;;;;1.10;0.50;;;6.20;99.90;;;;;;5072670;28;20541;-72
2021/09/04 04:10:41;;;;;;;0.32;0.32;;;6.20;99.90;;;;;;5072952;28;20031;-72
2021/09/04 04:13:06;;;;;;;0.63;0.50;;;6.30;99.90;;;;;;5073027;28;20028;-72
2021/09/04 04:15:32;;;;;;;1.02;0.43;;;6.30;99.90;;;;;;5072524;28;20449;-72
2021/09/04 04:17:58;;;;;;;0.50;0.50;;;6.40;99.90;;;;;;5072872;28;20047;-72
2021/09/04 04:20:24;;;;;;;2.13;0.55;;;6.50;99.90;;;;;;5072815;28;20042;-72
2021/09/04 04:22:49;;;;;;;0.68;0.68;;;6.70;99.90;;;;;;5072670;28;20025;-72
2021/09/04 04:25:15;;;;;;;0.50;0.50;;;6.80;99.90;;;;;;5072679;28;20055;-73
2021/09/04 04:27:41;;;;;;;1.25;0.50;;;7.20;99.90;;;;;;5072419;28;20028;-72
2021/09/04 04:30:07;;;;;;;0.40;0.40;;;7.50;99.90;;;;;;5072786;28;20028;-72
2021/09/04 04:32:33;;;;;;;1.95;0.60;;;7.90;99.90;;;;;;5072085;28;20035;-73
2021/09/04 04:34:59;;;;;;;0.35;0.30;;;8.10;99.90;;;;;;5072272;28;20045;-72
2021/09/04 04:37:26;;;;;;;0.50;0.50;;;8.40;99.90;;;;;;5072375;28;20052;-72
2021/09/04 04:39:51;;;;;;;0.40;0.40;;;8.50;99.90;;;;;;5072308;28;20107;-73
2021/09/04 04:42:17;;;;;;;1.00;0.45;;;8.80;99.90;;;;;;5072178;28;20054;-73
2021/09/04 04:44:43;;;;;;;0.85;0.43;;;9.10;99.90;;;;;;5072578;28;20063;-73
2021/09/04 04:47:09;;;;;;;0.77;0.50;;;9.50;99.90;;;;;;5072136;28;20418;-72
2021/09/04 04:49:34;;;;;;;0.43;0.43;;;9.80;99.90;;;;;;5072019;28;20358;-73
2021/09/04 04:52:00;;;;;;;0.30;0.30;;;10.10;99.90;;;;;;5072121;28;20039;-73
2021/09/04 04:54:26;;;;;;;0.75;0.40;;;10.40;99.50;;;;;;5071996;28;20052;-73
2021/09/04 04:56:52;;;;;;;1.52;0.40;;;10.70;98.10;;;;;;5072558;28;20020;-73
2021/09/04 04:59:18;;;;;;;0.40;0.40;;;11.00;97.20;;;;;;5071955;28;20079;-73
2021/09/04 05:01:44;;;;;;;0.85;0.40;;;11.20;96.00;;;;;;5072295;28;20029;-73
2021/09/04 05:04:10;;;;;;;0.40;0.40;;;11.40;95.10;;;;;;5072040;28;20060;-73
2021/09/04 05:06:35;;;;;;;1.95;0.60;;;11.60;93.60;;;;;;5071906;28;20028;-73
2021/09/04 05:09:01;;;;;;;0.50;0.50;;;11.80;92.90;;;;;;5072284;28;20020;-73
2021/09/04 05:11:27;;;;;;;1.23;0.40;;;12.00;92.10;;;;;;5071898;28;20500;-73
2021/09/04 05:13:52;;;;;;;0.52;0.40;;;12.10;91.30;;;;;;5072104;28;20025;-73
2021/09/04 05:16:18;;;;;;;0.40;0.40;;;12.30;90.30;;;;;;5071745;28;20165;-73
2021/09/04 05:18:44;;;;;;;0.30;0.30;;;12.60;89.90;;;;;;5071841;28;20020;-73
2021/09/04 05:21:09;;;;;;;0.88;0.35;;;12.70;87.60;;;;;;5072272;28;20170;-73
2021/09/04 05:23:35;;;;;;;1.13;0.30;;;13.00;86.80;;;;;;5077734;28;20020;-73
2021/09/04 05:26:01;;;;;;;0.88;0.40;;;13.10;84.90;;;;;;5078426;28;20035;-73
2021/09/04 05:28:26;;;;;;;0.20;0.20;;;13.10;83.40;;;;;;5078589;28;20028;-73
2021/09/04 05:30:52;;;;;;;0.45;0.40;;;13.30;82.30;;;;;;5078376;28;20545;-73
2021/09/04 05:33:18;;;;;;;0.35;0.20;;;13.40;81.20;;;;;;5078249;28;20024;-73
2021/09/04 05:35:44;;;;;;;1.55;0.40;;;13.40;79.80;;;;;;5078230;28;20119;-74
2021/09/04 05:38:10;;;;;;;1.08;0.30;;;13.50;78.70;;;;;;5078296;28;20036;-73
2021/09/04 05:40:35;;;;;;;2.85;0.47;;;13.60;77.90;;;;;;5078270;28;20032;-73
2021/09/04 05:43:01;;;;;;;0.68;0.20;;;13.70;76.90;;;;;;5078292;28;20114;-73
2021/09/04 05:45:27;;;;;;;0.70;0.25;;;13.80;76.70;;;;;;5078471;28;20031;-73
2021/09/04 05:47:53;;;;;;;0.38;0.32;;;13.90;75.80;;;;;;5078413;28;20422;-73
2021/09/04 05:50:18;;;;;;;0.55;0.32;;;14.10;74.80;;;;;;5078474;28;20464;-73
2021/09/04 05:52:44;;;;;;;0.20;0.20;;;14.20;74.30;;;;;;5078120;28;20054;-73
2021/09/04 05:55:10;;;;;;;0.47;0.30;;;14.30;73.80;;;;;;5078046;28;20040;-73
2021/09/04 05:57:35;;;;;;;2.42;0.40;;;14.40;73.30;;;;;;5077868;28;20028;-73
2021/09/04 06:00:02;;;;;;;0.40;0.25;;;14.50;72.20;;;;;;5078133;28;20027;-73
2021/09/04 06:02:27;;;;;;;0.40;0.30;;;14.50;72.00;;;;;;5078251;28;20124;-73
2021/09/04 06:04:53;;;;;;;0.68;0.10;;;14.60;71.60;;;;;;5078411;28;20107;-73
2021/09/04 06:07:19;;;;;;;0.35;0.35;;;14.60;70.80;;;;;;5078168;28;20044;-73
2021/09/04 06:09:44;;;;;;;0.40;0.30;;;14.60;71.50;;;;;;5078066;28;20051;-73
2021/09/04 06:12:10;;;;;;;0.22;0.22;;;14.70;71.00;;;;;;5078307;28;20024;-73
2021/09/04 06:14:36;;;;;;;0.85;0.30;;;14.70;69.20;;;;;;5077912;28;20040;-73
2021/09/04 06:17:02;;;;;;;0.55;0.30;;;14.60;69.80;;;;;;5077900;28;20423;-73
2021/09/04 06:19:27;;;;;;;0.90;0.30;;;14.80;70.40;;;;;;5078131;28;20032;-73
2021/09/04 06:21:53;;;;;;;1.30;0.35;;;14.70;68.70;;;;;;5078029;28;20648;-73
2021/09/04 06:24:19;;;;;;;7.72;0.40;;;14.50;68.40;;;;;;5077857;28;20115;-73
2021/09/04 06:26:44;;;;;;;0.15;0.15;;;14.40;69.00;;;;;;5077869;28;20020;-73
2021/09/04 06:29:10;;;;;;;0.28;0.20;;;14.30;68.80;;;;;;5078128;28;20103;-73
2021/09/04 06:31:36;;;;;;;1.60;0.40;;;14.30;69.30;;;;;;5077777;28;20165;-73
2021/09/04 06:34:02;;;;;;;0.90;0.30;;;14.10;68.70;;;;;;5075926;28;20028;-73
2021/09/04 06:36:27;;;;;;;0.32;0.32;;;13.90;68.60;;;;;;5074607;28;20028;-73
2021/09/04 06:38:53;;;;;;;0.30;0.30;;;13.80;68.60;;;;;;5074613;28;20108;-73
2021/09/04 06:41:19;;;;;;;0.25;0.22;;;13.80;69.30;;;;;;5074692;28;20160;-73
2021/09/04 06:43:44;;;;;;;0.35;0.30;;;13.90;69.10;;;;;;5074712;28;20108;-73
2021/09/04 06:46:10;;;;;;;0.20;0.20;;;13.80;68.10;;;;;;5074743;28;20046;-73
2021/09/04 06:48:36;;;;;;;0.70;0.20;;;13.60;67.70;;;;;;5074345;28;20021;-73
2021/09/04 06:51:02;;;;;;;0.70;0.35;;;13.70;68.80;;;;;;5074442;28;20480;-73
2021/09/04 06:53:28;;;;;;;0.10;0.10;;;13.70;68.40;;;;;;5074106;28;20020;-73
2021/09/04 06:55:54;;;;;;;0.32;0.32;;;13.70;67.40;;;;;;5074097;28;20049;-73
2021/09/04 06:58:20;;;;;;;1.65;0.40;;;13.40;67.20;;;;;;5074155;28;20020;-73
2021/09/04 07:00:46;;;;;;;0.52;0.30;;;13.40;68.30;;;;;;5074160;28;20112;-73
2021/09/04 07:03:12;;;;;;;1.00;0.35;;;13.30;67.70;;;;;;5074161;28;20024;-73
2021/09/04 07:05:38;;;;;;;0.60;0.30;;;13.20;68.20;;;;;;5074023;28;20028;-73
2021/09/04 07:08:04;;;;;;;0.50;0.30;;;13.30;68.00;;;;;;5073979;28;20074;-73
2021/09/04 07:10:30;;;;;;;2.35;0.30;;;13.30;67.90;;;;;;5074165;28;20029;-73
2021/09/04 07:12:55;;;;;;;0.40;0.40;;;13.30;67.80;;;;;;5074004;28;20388;-73
2021/09/04 07:15:21;;;;;;;0.65;0.40;;;13.30;68.00;;;;;;5074103;28;20488;-73
2021/09/04 07:17:47;;;;;;;0.30;0.30;;;13.20;68.00;;;;;;5073818;28;20040;-73
2021/09/04 07:20:13;;;;;;;0.55;0.40;;;13.20;67.10;;;;;;5074179;28;20031;-73
2021/09/04 07:22:39;;;;;;;0.68;0.30;;;13.20;66.80;;;;;;5073621;28;20071;-73
2021/09/04 07:25:05;;;;;;;0.43;0.40;;;13.00;67.00;;;;;;5073696;28;20028;-73
2021/09/04 07:27:31;;;;;;;1.15;0.40;;;12.90;67.00;;;;;;5073772;28;20040;-73
2021/09/04 07:29:56;;;;;;;0.60;0.30;;;12.80;67.70;;;;;;5072509;28;20017;-73
2021/09/04 07:32:23;;;;;;;0.30;0.30;;;12.80;67.50;;;;;;5073801;28;20020;-73
2021/09/04 07:34:49;;;;;;;0.50;0.38;;;12.80;67.60;;;;;;5073479;28;20039;-73
2021/09/04 07:37:15;;;;;;;0.35;0.35;;;12.70;67.00;;;;;;5073539;28;20025;-73
2021/09/04 07:39:40;;;;;;;1.05;0.30;;;12.60;66.00;;;;;;5073642;28;20025;-73
2021/09/04 07:42:06;;;;;;;0.30;0.30;;;12.50;66.50;;;;;;5073810;28;20427;-73
2021/09/04 07:44:32;;;;;;;1.00;0.40;;;12.40;66.90;;;;;;5072921;28;20036;-73
2021/09/04 07:46:57;;;;;;;1.30;0.40;;;12.40;67.70;;;;;;5073068;28;20028;-73
2021/09/04 07:49:23;;;;;;;0.40;0.40;;;12.40;67.10;;;;;;5073289;28;20396;-73
2021/09/04 07:51:49;;;;;;;0.40;0.30;;;12.30;66.50;;;;;;5073706;28;20024;-73
2021/09/04 07:54:15;;;;;;;1.98;0.40;;;12.30;66.00;;;;;;5072924;28;20048;-73
2021/09/04 07:56:40;;;;;;;0.95;0.50;;;12.20;65.60;;;;;;5072947;28;20021;-73
2021/09/04 07:59:06;;;;;;;0.57;0.40;;;12.10;64.90;;;;;;5073307;28;20115;-73
2021/09/04 08:01:34;;;;;;;0.70;0.35;;;11.90;65.30;;;;;;5073020;28;20016;-73
2021/09/04 08:03:59;;;;;;;0.38;0.30;;;11.90;65.50;;;;;;5073276;28;20025;-79
2021/09/04 08:06:25;;;;;;;0.35;0.28;;;12.00;71.40;;;;;;5072783;28;20021;-77
2021/09/04 08:08:51;;;;;;;0.30;0.30;;;12.80;83.60;;;;;;5072817;28;20538;-77
2021/09/04 08:11:19;;;;;;;0.95;0.40;;;13.30;77.50;;;;;;5073182;28;20035;-78
2021/09/04 08:13:44;;;;;;;2.45;0.40;;;13.50;72.20;;;;;;5072600;28;20025;-78
2021/09/04 08:16:10;;;;;;;0.47;0.30;;;13.50;74.70;;;;;;5072798;28;20040;-74
2021/09/04 08:18:36;;;;;;;5.97;0.60;;;13.30;66.30;;;;;;5072626;28;20021;-73
2021/09/04 08:21:01;;;;;;;0.80;0.52;;;12.90;64.30;;;;;;5072748;28;20039;-74
2021/09/04 08:23:27;;;;;;;0.77;0.60;;;12.70;65.30;;;;;;5072509;28;20024;-74
2021/09/04 08:25:53;;;;;;;0.30;0.30;;;12.60;65.80;;;;;;5072718;28;20029;-71
2021/09/04 08:28:19;;;;;;;1.25;0.43;;;12.60;64.70;;;;;;5072562;28;20040;-70
2021/09/04 08:30:45;;;;;;;0.25;0.25;;;12.60;64.00;;;;;;5072674;28;20021;-71
2021/09/04 08:33:10;;;;;;;1.08;0.85;;;12.60;65.30;;;;;;5072814;28;20619;-78
2021/09/04 08:35:36;;;;;;;0.98;0.38;;;12.70;77.50;;;;;;5072428;28;20036;-72
2021/09/04 08:38:06;;;;;;;0.85;0.40;;;13.00;66.40;;;;;;5072331;28;20037;-72
2021/09/04 08:40:33;;;;;;;;;;;12.70;62.80;;;;;;5072756;28;20028;-72
2021/09/04 08:43:00;;;;;;;0.32;0.32;;;12.60;62.90;;;;;;5072559;28;20321;-72
2021/09/04 08:45:27;;;;;;;0.57;0.50;;;12.50;63.60;;;;;;5072312;28;20021;-72
2021/09/04 08:47:53;;;;;;;0.52;0.40;;;12.40;64.40;;;;;;5072141;28;20028;-72
2021/09/04 08:50:19;;;;;;;0.98;0.60;;;12.40;64.10;;;;;;5072473;28;20031;-72
2021/09/04 08:52:45;;;;;;;0.85;0.43;;;12.30;63.00;;;;;;5071867;28;20024;-72
2021/09/04 08:55:11;;;;;;;2.15;0.60;;;12.30;63.40;;;;;;5071882;28;20106;-72
2021/09/04 08:57:37;;;;;;;0.90;0.45;;;12.30;63.10;;;;;;5071259;28;20020;-72
2021/09/04 09:00:03;;;;;;;0.40;0.40;;;12.30;64.90;;;;;;5072137;28;20392;-72
2021/09/04 09:02:29;;;;;;;1.10;0.35;;;12.20;64.70;;;;;;5071866;28;20029;-72
2021/09/04 09:05:01;;;;;;;0.68;0.50;;;12.20;65.40;;;;;;5072180;28;20085;-72
2021/09/04 09:07:38;;;;;;;0.52;0.50;;;12.10;65.30;;;;;;5072025;28;20545;-72
2021/09/04 09:10:04;;;;;;;1.50;0.50;;;12.00;65.00;;;;;;5071981;28;20028;-72
2021/09/04 09:12:31;;;;;;;0.93;0.52;;;12.10;64.10;;;;;;5071856;28;20390;-72
2021/09/04 09:14:58;;;;;;;2.63;0.55;;;12.10;64.10;;;;;;5072077;28;20036;-72
2021/09/04 09:17:26;;;;;;;0.77;0.52;;;12.20;63.60;;;;;;5072230;28;20106;-72
2021/09/04 09:20:04;;;;;;;0.93;0.40;;;12.30;62.70;;;;;;5071839;28;20025;-72
2021/09/04 09:22:42;;;;;;;1.23;0.50;;;12.30;61.40;;;;;;5071985;28;20388;-72
2021/09/04 09:25:18;;;;;;;0.60;0.47;;;12.40;62.10;;;;;;5072113;28;20031;-72
2021/09/04 09:28:12;;;;;;;0.43;0.40;;;12.40;60.60;;;;;;5072285;28;20078;-72
2021/09/04 09:30:42;;;;;;;0.80;0.57;;;12.30;59.70;;;;;;5071862;28;20045;-72
2021/09/04 09:33:10;;;;;;;0.47;0.47;;;12.30;60.90;;;;;;5071686;28;20082;-72
2021/09/04 09:35:39;;;;;;;0.40;0.40;;;12.20;61.60;;;;;;5071758;28;20063;-72
2021/09/04 09:38:07;;;;;;;1.00;0.50;;;12.10;61.50;;;;;;5071597;28;20103;-72
2021/09/04 09:40:34;;;;;;;0.45;0.43;;;12.00;62.40;;;;;;5071875;28;20028;-72
2021/09/04 09:43:00;;;;;;;0.55;0.50;;;12.00;63.50;;;;;;5071498;28;20020;-72
2021/09/04 09:46:05;;;;;;;0.98;0.50;;;12.10;62.90;;;;;;5071537;28;20028;-72
2021/09/04 09:48:33;;;;;;;0.60;0.40;;;12.10;62.00;;;;;;5068974;28;20021;-72
2021/09/04 09:51:04;;;;;;;1.85;0.60;;;12.20;62.10;;;;;;5071003;28;20521;-72
2021/09/04 09:53:30;;;;;;;0.82;0.60;;;12.20;60.30;;;;;;5071552;28;20020;-72
2021/09/04 09:55:58;;;;;;;0.88;0.40;;;12.20;61.40;;;;;;5071157;28;20458;-72
2021/09/04 09:58:28;;;;;;;1.55;0.45;;;12.20;61.90;;;;;;5071478;28;20473;-72
2021/09/04 10:00:55;;;;;;;1.10;0.57;;;12.40;62.10;;;;;;5071481;28;20024;-72
2021/09/04 10:03:24;;;;;;;0.45;0.40;;;12.50;61.60;;;;;;5071653;28;20029;-72
2021/09/04 10:05:50;;;;;;;1.40;0.60;;;12.50;61.70;;;;;;5071240;28;20020;-72
2021/09/04 10:08:19;;;;;;;0.43;0.43;;;12.60;62.80;;;;;;5072466;28;20028;-72
2021/09/04 10:10:46;;;;;;;1.13;0.60;;;12.50;60.70;;;;;;5075118;28;20154;-72
2021/09/04 10:13:13;;;;;;;0.85;0.63;;;12.50;60.60;;;;;;5057017;28;20404;-72
2021/09/04 10:15:40;;;;;;;1.40;0.75;;;12.50;60.80;;;;;;5075086;28;20446;-72
2021/09/04 10:18:08;;;;;;;2.67;0.60;;;12.50;61.70;;;;;;5075238;28;20096;-72
2021/09/04 10:20:35;;;;;;;1.90;0.68;;;12.50;61.60;;;;;;5074819;28;20447;-72
2021/09/04 10:23:13;;;;;;;4.65;0.73;;;12.50;62.10;;;;;;5074929;28;20464;-72
2021/09/04 10:25:39;;;;;;;4.28;0.90;;;12.40;62.30;;;;;;5074690;28;20029;-72
2021/09/04 10:28:05;;;;;;;1.25;0.57;;;12.40;61.40;;;;;;5074747;28;20032;-72
2021/09/04 10:30:42;;;;;;;0.68;0.38;;;12.40;61.00;;;;;;5075074;28;20119;-72
2021/09/04 10:33:18;;;;;;;1.25;0.50;;;12.50;60.70;;;;;;5074659;28;20118;-72
2021/09/04 10:35:56;;;;;;;1.20;0.50;;;12.60;61.30;;;;;;5074563;28;20029;-72
2021/09/04 10:38:27;;;;;;;1.35;0.50;;;12.70;62.40;;;;;;5074861;28;20029;-72
2021/09/04 10:41:15;;;;;;;0.57;0.40;;;12.80;62.70;;;;;;5074570;28;20040;-72
2021/09/04 10:43:46;;;;;;;5.15;0.60;;;12.80;61.30;;;;;;5074342;28;20023;-72
2021/09/04 10:46:15;;;;;;;1.58;0.40;;;12.80;60.10;;;;;;5074427;28;20514;-72
2021/09/04 10:48:41;;;;;;;1.10;0.40;;;12.70;59.60;;;;;;5074391;28;20024;-72
2021/09/04 10:51:09;;;;;;;2.15;0.50;;;12.60;60.00;;;;;;5074426;28;20112;-73
2021/09/04 10:53:52;;;;;;;0.80;0.35;;;12.50;59.40;;;;;;5074197;28;20025;-72
2021/09/04 10:56:28;;;;;;;0.43;0.40;;;12.60;59.80;;;;;;5074316;28;20044;-72
2021/09/04 10:58:54;;;;;;;1.10;0.47;;;12.50;59.10;;;;;;5074886;28;20473;-72
2021/09/04 11:01:32;;;;;;;0.95;0.60;;;12.60;59.50;;;;;;5074603;28;20048;-72
2021/09/04 11:03:58;;;;;;;1.23;0.45;;;12.60;60.30;;;;;;5074289;28;20033;-72
2021/09/04 11:06:25;;;;;;;0.57;0.50;;;12.70;60.70;;;;;;5074084;28;20027;-72
2021/09/04 11:08:54;;;;;;;0.30;0.30;;;12.70;59.60;;;;;;5073864;28;20074;-72
2021/09/04 11:11:37;;;;;;;0.68;0.40;;;12.70;61.20;;;;;;5074319;28;20024;-72
2021/09/04 11:14:16;;;;;;;0.95;0.50;;;12.70;60.70;;;;;;5073901;28;20082;-72
2021/09/04 11:16:47;;;;;;;1.00;0.50;;;12.60;60.00;;;;;;5073795;28;20377;-72
2021/09/04 11:19:17;;;;;;;0.80;0.50;;;12.50;58.60;;;;;;5073922;28;20023;-72
2021/09/04 11:21:49;;;;;;;0.85;0.40;;;12.50;58.70;;;;;;5073165;28;20051;-72
2021/09/04 11:24:20;;;;;;;1.00;0.55;;;12.50;59.10;;;;;;5074038;28;20099;-72
2021/09/04 11:26:48;;;;;;;2.75;0.65;;;12.40;59.20;;;;;;5073503;28;20044;-72
2021/09/04 11:29:13;;;;;;;1.98;0.38;;;12.40;59.10;;;;;;5074021;28;20032;-75
2021/09/04 11:31:53;;;;;;;2.63;0.20;;;12.70;73.50;;;;;;5073785;28;20021;-74
2021/09/04 11:34:36;;;;;;;1.70;0.40;;;13.50;78.50;;;;;;5073536;28;20024;-77
2021/09/04 11:37:16;;;;;;;2.15;0.30;;;14.00;77.90;;;;;;5073830;28;20112;-77
2021/09/04 11:39:41;;;;;;;1.95;0.47;;;14.30;79.30;;;;;;5073447;28;20448;-76
2021/09/04 11:42:13;;;;;;;1.10;0.40;;;14.50;73.00;;;;;;5073728;28;20056;-76
2021/09/04 11:44:55;;;;;;;0.40;0.35;;;14.30;70.10;;;;;;5072891;28;20366;-75
2021/09/04 11:47:23;;;;;;;1.30;0.55;;;14.60;71.30;;;;;;5073284;28;20023;-72
2021/09/04 11:49:54;;;;;;;3.15;0.50;;;14.30;61.10;;;;;;5073177;28;20369;-76
2021/09/04 11:52:32;;;;;;;10.07;0.90;;;13.90;60.00;;;;;;5073194;28;20074;-72
2021/09/04 11:55:12;;;;;;;1.27;0.50;;;13.60;61.40;;;;;;5072803;28;20668;-74
2021/09/04 11:57:42;;;;;;;1.05;0.38;;;13.50;61.70;;;;;;5073117;28;20575;-72
2021/09/04 12:00:12;;;;;;;;;;;13.40;60.70;;;;;;5073451;28;20047;-70
2021/09/04 12:03:05;;;;;;;1.27;0.80;;;13.30;61.10;;;;;;5073015;28;20501;-72
2021/09/04 12:05:33;;;;;;;0.63;0.40;;;13.40;62.10;;;;;;5072591;28;20108;-73
2021/09/04 12:08:10;;;;;;;0.43;0.30;;;13.30;61.10;;;;;;5073084;28;20033;-69
2021/09/04 12:10:38;;;;;;;0.77;0.60;;;13.20;60.70;;;;;;5073224;28;20357;-66
2021/09/04 12:13:10;;;;;;;2.17;0.57;;;13.20;59.80;;;;;;5073095;28;20043;-73
2021/09/04 12:15:37;;;;;;;0.38;0.38;;;13.30;60.80;;;;;;5072751;28;20121;-73
2021/09/04 12:18:06;;;;;;;1.38;0.85;;;13.30;58.40;;;;;;5072737;28;20138;-73
2021/09/04 12:20:32;;;;;;;1.20;0.52;;;13.20;58.90;;;;;;5072793;28;20028;-73
2021/09/04 12:23:01;;;;;;;1.15;0.40;;;13.10;58.40;;;;;;5072644;28;20036;-73
2021/09/04 12:25:30;;;;;;;0.60;0.40;;;13.10;58.30;;;;;;5072975;28;20025;-73
2021/09/04 12:28:03;;;;;;;0.65;0.50;;;13.00;57.90;;;;;;5072489;28;20082;-73
2021/09/04 12:30:29;;;;;;;2.47;0.47;;;12.90;58.30;;;;;;5072445;28;20530;-71
2021/09/04 12:33:06;;;;;;;0.75;0.40;;;13.10;69.40;;;;;;5072539;28;20024;-69
2021/09/04 12:35:59;;;;;;;0.47;0.40;;;13.80;66.80;;;;;;5072252;28;20064;-69
2021/09/04 12:38:42;;;;;;;0.60;0.40;;;13.50;59.30;;;;;;5071916;28;20036;-69
2021/09/04 12:41:17;;;;;;;3.38;0.90;;;13.40;65.30;;;;;;5072034;28;20035;-69
2021/09/04 12:44:07;;;;;;;0.77;0.50;;;13.40;64.20;;;;;;5072262;28;20434;-69
2021/09/04 12:46:37;;;;;;;0.77;0.35;;;13.30;60.90;;;;;;5072139;28;20032;-69
2021/09/04 12:49:21;;;;;;;1.38;0.40;;;13.20;60.40;;;;;;5071911;28;20047;-71
2021/09/04 12:52:05;;;;;;;0.60;0.43;;;13.10;61.00;;;;;;5071973;28;20483;-68
2021/09/04 12:54:42;;;;;;;0.68;0.30;;;13.00;60.50;;;;;;5071735;28;20492;-70
2021/09/04 12:57:13;;;;;;;0.65;0.40;;;13.00;62.00;;;;;;5072099;28;20035;-70
2021/09/04 12:59:54;;;;;;;2.45;0.50;;;13.00;61.40;;;;;;5071949;28;20025;-70
2021/09/04 13:02:36;;;;;;;2.22;0.80;;;13.00;61.00;;;;;;5072036;28;20116;-70
2021/09/04 13:05:07;;;;;;;0.50;0.45;;;12.90;60.60;;;;;;5071816;28;20036;-69
2021/09/04 13:07:48;;;;;;;3.83;0.47;;;12.90;60.40;;;;;;5072425;28;20112;-71
2021/09/04 13:10:18;;;;;;;2.38;0.60;;;12.80;61.10;;;;;;5071936;28;20099;-73
2021/09/04 13:12:45;;;;;;;1.40;0.43;;;12.90;60.60;;;;;;5072074;28;20017;-72
2021/09/04 13:15:12;;;;;;;0.98;0.50;;;12.90;61.00;;;;;;5071656;28;20036;-70
2021/09/04 13:17:41;;;;;;;1.17;0.50;;;12.90;61.40;;;;;;5072241;28;20117;-74
2021/09/04 13:20:09;;;;;;;1.43;0.50;;;12.90;60.70;;;;;;5070862;28;20024;-73
2021/09/04 13:22:36;;;;;;;0.75;0.40;;;12.90;61.20;;;;;;5071843;28;20036;-72